createdAt,value
2023-03-03T00:00:10.783Z,-0.33
2023-03-03T00:02:58.212Z,-0.36
2023-03-03T00:05:47.621Z,-0.47
2023-03-03T00:08:42.131Z,-0.55
2023-03-03T00:11:20.093Z,-0.58
2023-03-03T00:14:07.345Z,-0.70
2023-03-03T00:16:53.017Z,-0.74
2023-03-03T00:19:45.027Z,-0.82
2023-03-03T00:22:40.304Z,-0.84
2023-03-03T00:25:52.883Z,-0.83
2023-03-03T00:29:07.542Z,-0.78
2023-03-03T00:31:52.231Z,-0.80
2023-03-03T00:34:41.865Z,-0.88
2023-03-03T00:38:01.902Z,-0.88
2023-03-03T00:40:54.257Z,-0.91
2023-03-03T00:43:40.812Z,-0.91
2023-03-03T00:46:33.350Z,-0.85
2023-03-03T00:49:31.939Z,-0.78
2023-03-03T00:52:33.813Z,-0.73
2023-03-03T00:55:19.691Z,-0.84
2023-03-03T00:58:01.881Z,-0.82
2023-03-03T01:00:49.857Z,-0.90
2023-03-03T01:03:46.074Z,-0.82
2023-03-03T01:06:27.086Z,-0.80
2023-03-03T01:09:17.121Z,-0.77
2023-03-03T01:11:59.344Z,-0.79
2023-03-03T01:14:55.884Z,-0.74
2023-03-03T01:17:41.095Z,-0.78
2023-03-03T01:20:24.990Z,-0.79
2023-03-03T01:23:11.277Z,-0.92
2023-03-03T01:26:05.831Z,-1.00
2023-03-03T01:28:52.416Z,-0.95
2023-03-03T01:31:36.166Z,-1.02
2023-03-03T01:34:23.516Z,-1.01
2023-03-03T01:37:15.250Z,-1.11
2023-03-03T01:40:02.324Z,-1.24
2023-03-03T01:42:57.154Z,-1.36
2023-03-03T01:45:59.130Z,-1.39
2023-03-03T01:48:53.785Z,-1.39
2023-03-03T01:51:51.875Z,-1.40
2023-03-03T01:54:47.214Z,-1.55
2023-03-03T01:57:33.737Z,-1.46
2023-03-03T02:00:20.056Z,-1.39
2023-03-03T02:02:58.777Z,-1.41
2023-03-03T02:05:36.498Z,-1.37
2023-03-03T02:08:22.222Z,-1.30
2023-03-03T02:11:00.902Z,-1.24
2023-03-03T02:13:36.117Z,-1.36
2023-03-03T02:16:24.559Z,-1.38
2023-03-03T02:19:16.612Z,-1.38
2023-03-03T02:22:02.697Z,-1.37
2023-03-03T02:24:47.974Z,-1.40
2023-03-03T02:27:38.402Z,-1.36
2023-03-03T02:30:22.286Z,-1.39
2023-03-03T02:33:08.510Z,-1.36
2023-03-03T02:35:57.008Z,-1.31
2023-03-03T02:38:49.801Z,-1.34
2023-03-03T02:41:51.375Z,-1.37
2023-03-03T02:44:33.263Z,-1.49
2023-03-03T02:47:11.220Z,-1.51
2023-03-03T02:49:51.764Z,-1.52
2023-03-03T02:52:35.840Z,-1.53
2023-03-03T02:55:16.311Z,-1.56
2023-03-03T02:58:00.263Z,-1.55
2023-03-03T03:00:38.000Z,-1.58
2023-03-03T03:03:16.205Z,-1.50
2023-03-03T03:06:03.739Z,-1.59
2023-03-03T03:08:55.114Z,-1.59
2023-03-03T03:11:36.473Z,-1.62
2023-03-03T03:14:18.898Z,-1.79
2023-03-03T03:16:58.201Z,-1.90
2023-03-03T03:19:43.768Z,-1.92
2023-03-03T03:22:19.703Z,-2.02
2023-03-03T03:25:01.150Z,-2.03
2023-03-03T03:27:45.148Z,-2.13
2023-03-03T03:30:34.577Z,-2.16
2023-03-03T03:33:12.771Z,-2.19
2023-03-03T03:36:04.417Z,-2.23
2023-03-03T03:38:52.473Z,-2.24
2023-03-03T03:41:33.091Z,-2.30
2023-03-03T03:44:11.381Z,-2.34
2023-03-03T03:47:10.450Z,-2.39
2023-03-03T03:50:05.427Z,-2.40
2023-03-03T03:52:44.000Z,-2.40
2023-03-03T03:55:30.038Z,-2.43
2023-03-03T03:58:07.853Z,-2.35
2023-03-03T04:00:49.171Z,-2.42
2023-03-03T04:03:36.521Z,-2.48
2023-03-03T04:06:29.251Z,-2.34
2023-03-03T04:09:10.510Z,-2.31
2023-03-03T04:12:00.727Z,-2.32
2023-03-03T04:14:49.657Z,-2.41
2023-03-03T04:17:31.175Z,-2.58
2023-03-03T04:20:13.628Z,-2.56
2023-03-03T04:22:57.936Z,-2.57
2023-03-03T04:25:42.601Z,-2.62
2023-03-03T04:28:30.055Z,-2.53
2023-03-03T04:31:19.821Z,-2.61
2023-03-03T04:34:14.981Z,-2.60
2023-03-03T04:36:51.430Z,-2.56
2023-03-03T04:39:40.851Z,-2.52
2023-03-03T04:42:24.682Z,-2.49
2023-03-03T04:45:09.601Z,-2.56
2023-03-03T04:48:01.440Z,-2.43
2023-03-03T04:50:43.894Z,-2.25
2023-03-03T04:53:40.337Z,-2.35
2023-03-03T04:56:26.942Z,-2.42
2023-03-03T04:59:10.526Z,-2.41
2023-03-03T05:01:53.404Z,-2.43
2023-03-03T05:04:31.611Z,-2.48
2023-03-03T05:07:26.852Z,-2.52
2023-03-03T05:10:21.539Z,-2.54
2023-03-03T05:13:06.458Z,-2.49
2023-03-03T05:15:50.599Z,-2.50
2023-03-03T05:18:35.531Z,-2.54
2023-03-03T05:21:14.222Z,-2.47
2023-03-03T05:24:13.820Z,-2.55
2023-03-03T05:26:52.330Z,-2.54
2023-03-03T05:29:31.342Z,-2.53
2023-03-03T05:32:20.498Z,-2.51
2023-03-03T05:35:04.510Z,-2.54
2023-03-03T05:37:59.016Z,-2.61
2023-03-03T05:40:43.926Z,-2.55
2023-03-03T05:43:33.330Z,-2.54
2023-03-03T05:46:14.559Z,-2.42
2023-03-03T05:48:58.399Z,-2.35
2023-03-03T05:51:48.022Z,-2.33
2023-03-03T05:54:48.808Z,-2.30
2023-03-03T05:57:29.565Z,-2.26
2023-03-03T06:00:19.708Z,-2.24
2023-03-03T06:03:06.167Z,-2.28
2023-03-03T06:05:49.412Z,-2.28
2023-03-03T06:08:32.977Z,-2.28
2023-03-03T06:11:16.787Z,-2.15
2023-03-03T06:14:10.786Z,-2.10
2023-03-03T06:16:56.474Z,-2.04
2023-03-03T06:19:48.553Z,-1.94
2023-03-03T06:22:30.150Z,-1.93
2023-03-03T06:25:13.598Z,-1.83
2023-03-03T06:27:55.050Z,-1.67
2023-03-03T06:30:42.409Z,-1.58
2023-03-03T06:33:17.301Z,-1.47
2023-03-03T06:35:58.874Z,-1.39
2023-03-03T06:38:34.032Z,-1.39
2023-03-03T06:41:24.724Z,-1.29
2023-03-03T06:44:02.911Z,-1.16
2023-03-03T06:46:48.638Z,-0.71
2023-03-03T06:49:29.912Z,-0.45
2023-03-03T06:52:17.655Z,-0.23
2023-03-03T06:54:56.782Z,0.01
2023-03-03T06:57:49.085Z,0.22
2023-03-03T07:00:35.126Z,0.31
2023-03-03T07:03:29.551Z,0.47
2023-03-03T07:06:29.560Z,0.68
2023-03-03T07:09:11.964Z,0.95
2023-03-03T07:11:50.124Z,1.39
2023-03-03T07:14:34.488Z,1.59
2023-03-03T07:17:24.130Z,1.74
2023-03-03T07:20:21.116Z,2.09
2023-03-03T07:23:22.730Z,2.25
2023-03-03T07:26:33.470Z,2.61
2023-03-03T07:29:27.729Z,2.82
2023-03-03T07:32:20.180Z,3.06
2023-03-03T07:35:02.594Z,3.34
2023-03-03T07:37:54.967Z,3.45
2023-03-03T07:40:54.951Z,3.59
2023-03-03T07:43:40.132Z,3.72
2023-03-03T07:46:41.052Z,3.76
2023-03-03T07:49:41.519Z,4.03
2023-03-03T07:52:34.158Z,4.30
2023-03-03T07:55:32.133Z,4.49
2023-03-03T07:58:49.108Z,4.59
2023-03-03T08:01:48.455Z,4.85
2023-03-03T08:04:47.439Z,5.07
2023-03-03T08:07:23.359Z,5.38
2023-03-03T08:10:48.213Z,5.57
2023-03-03T08:13:35.189Z,5.70
2023-03-03T08:17:04.692Z,5.94
2023-03-03T08:19:50.111Z,6.23
2023-03-03T08:22:46.690Z,6.50
2023-03-03T08:25:30.526Z,6.72
2023-03-03T08:28:23.110Z,6.70
2023-03-03T08:31:16.751Z,6.71
2023-03-03T08:34:11.561Z,6.73
2023-03-03T08:37:00.208Z,6.80
2023-03-03T08:39:43.758Z,6.84
2023-03-03T08:42:29.075Z,7.07
2023-03-03T08:45:24.920Z,7.27
2023-03-03T08:48:14.182Z,7.52
2023-03-03T08:50:49.640Z,7.76
2023-03-03T08:53:33.732Z,7.83
2023-03-03T08:56:17.574Z,7.93
2023-03-03T08:59:03.000Z,7.91
2023-03-03T09:01:36.154Z,7.65
2023-03-03T09:04:27.755Z,7.84
2023-03-03T09:07:17.469Z,7.74
2023-03-03T09:10:08.086Z,8.13
2023-03-03T09:12:51.890Z,8.25
2023-03-03T09:15:42.103Z,8.50
2023-03-03T09:18:38.089Z,8.60
2023-03-03T09:21:37.101Z,8.90
2023-03-03T09:24:26.101Z,9.06
2023-03-03T09:27:08.804Z,9.31
2023-03-03T09:29:56.116Z,9.57
2023-03-03T09:32:55.542Z,9.89
2023-03-03T09:35:45.650Z,10.22
2023-03-03T09:38:31.718Z,10.22
2023-03-03T09:41:42.064Z,10.36
2023-03-03T09:44:42.252Z,10.43
2023-03-03T09:47:52.575Z,10.45
2023-03-03T09:51:16.093Z,10.76
2023-03-03T09:53:58.507Z,10.99
2023-03-03T09:57:02.341Z,11.28
2023-03-03T09:59:53.780Z,11.19
2023-03-03T10:03:10.549Z,11.37
2023-03-03T10:06:10.316Z,11.49
2023-03-03T10:09:11.229Z,11.57
2023-03-03T10:12:19.817Z,11.60
2023-03-03T10:15:16.074Z,11.84
2023-03-03T10:18:18.932Z,12.06
2023-03-03T10:21:20.215Z,12.02
2023-03-03T10:24:09.103Z,11.97
2023-03-03T10:27:35.128Z,12.35
2023-03-03T10:30:54.566Z,12.60
2023-03-03T10:34:19.727Z,12.78
2023-03-03T10:37:10.540Z,12.89
2023-03-03T10:40:17.686Z,12.88
2023-03-03T10:43:09.111Z,12.56
2023-03-03T10:46:15.171Z,12.78
2023-03-03T10:49:16.946Z,12.99
2023-03-03T10:52:32.073Z,12.91
2023-03-03T10:55:28.264Z,12.64
2023-03-03T10:58:16.618Z,12.91
2023-03-03T11:01:05.963Z,13.10
2023-03-03T11:04:25.109Z,12.78
2023-03-03T11:07:15.004Z,12.66
2023-03-03T11:10:20.379Z,12.42
2023-03-03T11:13:19.089Z,12.13
2023-03-03T11:16:18.164Z,12.33
2023-03-03T11:19:08.238Z,12.16
2023-03-03T11:22:10.789Z,11.92
2023-03-03T11:25:20.849Z,12.17
2023-03-03T11:28:33.623Z,12.18
2023-03-03T11:31:38.793Z,12.23
2023-03-03T11:34:43.036Z,12.32
2023-03-03T11:38:02.850Z,12.53
2023-03-03T11:41:23.099Z,12.82
2023-03-03T11:44:31.919Z,12.63
2023-03-03T11:47:30.976Z,12.50
2023-03-03T11:50:42.006Z,12.54
2023-03-03T11:53:38.936Z,12.31
2023-03-03T11:56:58.165Z,12.35
2023-03-03T12:00:00.452Z,12.67
2023-03-03T12:02:47.710Z,13.15
2023-03-03T12:05:43.295Z,13.32
2023-03-03T12:08:51.947Z,13.28
2023-03-03T12:11:46.530Z,13.40
2023-03-03T12:15:08.749Z,13.70
2023-03-03T12:18:09.815Z,13.92
2023-03-03T12:21:29.381Z,13.93
2023-03-03T12:24:56.174Z,13.60
2023-03-03T12:27:51.474Z,13.56
2023-03-03T12:31:00.100Z,14.14
2023-03-03T12:33:57.135Z,14.35
2023-03-03T12:37:00.967Z,14.59
2023-03-03T12:40:04.089Z,14.56
2023-03-03T12:43:02.160Z,14.59
2023-03-03T12:46:09.348Z,14.91
2023-03-03T12:48:57.218Z,14.63
2023-03-03T12:51:55.402Z,14.62
2023-03-03T12:55:07.038Z,14.53
2023-03-03T12:58:11.726Z,13.84
2023-03-03T13:01:02.153Z,14.13
2023-03-03T13:04:07.857Z,14.48
2023-03-03T13:07:03.187Z,14.56
2023-03-03T13:09:58.396Z,14.17
2023-03-03T13:13:07.147Z,14.20
2023-03-03T13:16:17.333Z,13.57
2023-03-03T13:19:10.015Z,12.71
2023-03-03T13:21:58.508Z,12.64
2023-03-03T13:25:01.137Z,12.78
2023-03-03T13:28:01.036Z,12.79
2023-03-03T13:30:46.534Z,12.90
2023-03-03T13:33:31.924Z,12.60
2023-03-03T13:36:52.482Z,12.43
2023-03-03T13:39:43.335Z,12.54
2023-03-03T13:42:54.915Z,12.72
2023-03-03T13:46:05.695Z,12.56
2023-03-03T13:49:10.320Z,12.41
2023-03-03T13:52:20.117Z,12.38
2023-03-03T13:55:16.177Z,12.33
2023-03-03T13:58:26.060Z,12.50
2023-03-03T14:01:54.551Z,12.42
2023-03-03T14:04:53.124Z,12.14
2023-03-03T14:07:45.783Z,11.81
2023-03-03T14:10:48.594Z,12.00
2023-03-03T14:13:48.065Z,12.15
2023-03-03T14:16:55.095Z,12.04
2023-03-03T14:19:49.080Z,11.91
2023-03-03T14:22:56.472Z,12.04
2023-03-03T14:26:08.709Z,11.81
2023-03-03T14:28:56.963Z,11.62
2023-03-03T14:31:43.597Z,11.87
2023-03-03T14:34:41.902Z,12.31
2023-03-03T14:37:46.332Z,12.26
2023-03-03T14:40:36.483Z,12.31
2023-03-03T14:43:26.607Z,12.22
2023-03-03T14:46:34.455Z,12.26
2023-03-03T14:49:39.119Z,12.15
2023-03-03T14:52:42.983Z,12.14
2023-03-03T14:55:34.118Z,12.01
2023-03-03T14:58:29.989Z,11.76
2023-03-03T15:01:41.626Z,11.68
2023-03-03T15:04:40.121Z,11.66
2023-03-03T15:07:36.236Z,11.63
2023-03-03T15:10:38.235Z,11.61
2023-03-03T15:13:42.664Z,11.76
2023-03-03T15:16:41.087Z,11.65
2023-03-03T15:19:45.228Z,11.72
2023-03-03T15:22:46.091Z,11.63
2023-03-03T15:26:09.700Z,11.64
2023-03-03T15:29:02.212Z,11.49
2023-03-03T15:31:53.588Z,11.51
2023-03-03T15:35:13.026Z,11.72
2023-03-03T15:38:51.940Z,12.03
2023-03-03T15:41:53.081Z,12.32
2023-03-03T15:44:55.883Z,11.98
2023-03-03T15:48:22.063Z,11.08
2023-03-03T15:51:25.049Z,11.48
2023-03-03T15:54:45.281Z,11.40
2023-03-03T15:57:44.430Z,11.30
2023-03-03T16:00:49.835Z,11.24
2023-03-03T16:03:40.247Z,11.28
2023-03-03T16:06:50.228Z,11.34
2023-03-03T16:09:57.054Z,10.77
2023-03-03T16:12:46.833Z,10.57
2023-03-03T16:15:41.809Z,10.14
2023-03-03T16:22:21.075Z,9.68
2023-03-03T16:25:09.094Z,9.60
2023-03-03T16:28:19.301Z,9.39
2023-03-03T16:31:36.597Z,9.14
2023-03-03T16:34:47.090Z,8.88
2023-03-03T16:37:50.859Z,8.53
2023-03-03T16:40:39.110Z,8.32
2023-03-03T16:44:00.720Z,7.92
2023-03-03T16:46:50.608Z,7.63
2023-03-03T16:49:49.942Z,7.32
2023-03-03T16:52:40.884Z,6.93
2023-03-03T16:55:33.252Z,6.87
2023-03-03T16:58:44.147Z,6.66
2023-03-03T17:01:33.794Z,6.56
2023-03-03T17:04:34.817Z,6.44
2023-03-03T17:07:41.096Z,6.00
2023-03-03T17:11:10.112Z,5.77
2023-03-03T17:14:03.258Z,5.80
2023-03-03T17:16:57.352Z,5.70
2023-03-03T17:19:58.075Z,5.55
2023-03-03T17:23:04.063Z,5.39
2023-03-03T17:26:09.548Z,5.28
2023-03-03T17:29:20.086Z,5.21
2023-03-03T17:32:24.825Z,4.98
2023-03-03T17:35:26.402Z,4.78
2023-03-03T17:38:17.759Z,4.77
2023-03-03T17:41:08.394Z,4.68
2023-03-03T17:44:20.058Z,4.60
2023-03-03T17:47:18.005Z,4.34
2023-03-03T17:50:33.959Z,4.33
2023-03-03T17:53:42.110Z,4.18
2023-03-03T17:57:12.102Z,4.02
2023-03-03T18:00:06.840Z,3.83
2023-03-03T18:03:08.215Z,3.88
2023-03-03T18:06:18.217Z,3.77
2023-03-03T18:09:23.006Z,3.79
2023-03-03T18:12:46.540Z,3.72
2023-03-03T18:16:05.421Z,3.73
2023-03-03T18:19:16.102Z,3.64
2023-03-03T18:22:06.387Z,3.58
2023-03-03T18:25:04.170Z,3.55
2023-03-03T18:27:49.143Z,3.46
2023-03-03T18:30:33.569Z,3.43
2023-03-03T18:33:23.060Z,3.41
2023-03-03T18:36:37.110Z,3.31
2023-03-03T18:39:41.180Z,3.36
2023-03-03T18:42:41.965Z,3.35
2023-03-03T18:45:28.090Z,3.32
2023-03-03T18:48:17.197Z,3.24
2023-03-03T18:50:56.319Z,3.18
2023-03-03T18:54:17.693Z,3.15
2023-03-03T18:57:30.903Z,3.02
2023-03-03T19:00:28.716Z,3.04
2023-03-03T19:03:39.749Z,3.09
2023-03-03T19:06:39.072Z,3.07
2023-03-03T19:09:45.755Z,2.90
2023-03-03T19:12:51.682Z,2.91
2023-03-03T19:15:44.226Z,2.82
2023-03-03T19:18:32.393Z,2.86
2023-03-03T19:21:40.024Z,2.90
2023-03-03T19:24:41.033Z,2.73
2023-03-03T19:27:54.036Z,2.64
2023-03-03T19:30:56.528Z,2.53
2023-03-03T19:34:14.462Z,2.41
2023-03-03T19:37:15.250Z,2.33
2023-03-03T19:40:19.119Z,2.43
2023-03-03T19:43:19.412Z,2.25
2023-03-03T19:46:26.460Z,2.15
2023-03-03T19:49:27.459Z,1.92
2023-03-03T19:52:37.050Z,1.99
2023-03-03T19:55:36.190Z,1.92
2023-03-03T19:58:27.111Z,1.86
2023-03-03T20:01:24.501Z,1.80
2023-03-03T20:04:22.254Z,1.76
2023-03-03T20:11:21.980Z,1.33
2023-03-03T20:14:37.701Z,1.37
2023-03-03T20:17:36.034Z,1.30
2023-03-03T20:20:43.429Z,1.35
2023-03-03T20:23:38.076Z,1.20
2023-03-03T20:26:36.807Z,1.22
2023-03-03T20:29:44.952Z,1.12
2023-03-03T20:32:57.004Z,1.07
2023-03-03T20:36:19.250Z,1.06
2023-03-03T20:39:24.026Z,0.95
2023-03-03T20:42:52.544Z,0.84
2023-03-03T20:46:11.131Z,0.75
2023-03-03T20:49:21.086Z,0.71
2023-03-03T20:52:17.386Z,0.73
2023-03-03T20:55:16.038Z,0.70
2023-03-03T20:58:32.233Z,0.73
2023-03-03T21:01:25.657Z,0.68
2023-03-03T21:04:30.443Z,0.51
2023-03-03T21:07:28.249Z,0.61
2023-03-03T21:10:29.018Z,0.64
2023-03-03T21:13:47.042Z,0.52
2023-03-03T21:16:33.491Z,0.41
2023-03-03T21:22:25.540Z,0.16
2023-03-03T21:25:12.044Z,0.13
2023-03-03T21:28:12.802Z,0.17
2023-03-03T21:31:16.896Z,0.14
2023-03-03T21:34:22.305Z,0.17
2023-03-03T21:37:07.074Z,0.08
2023-03-03T21:40:20.694Z,-0.01
2023-03-03T21:43:01.270Z,-0.03
2023-03-03T21:45:49.437Z,-0.07
2023-03-03T21:48:32.458Z,-0.28
2023-03-03T21:51:17.318Z,-0.28
2023-03-03T21:54:07.149Z,-0.27
2023-03-03T21:57:07.672Z,-0.25
2023-03-03T21:59:57.059Z,-0.32
2023-03-03T22:02:46.056Z,-0.31
2023-03-03T22:05:41.599Z,-0.41
2023-03-03T22:08:33.154Z,-0.42
2023-03-03T22:11:23.575Z,-0.48
2023-03-03T22:14:08.384Z,-0.56
2023-03-03T22:17:07.026Z,-0.55
2023-03-03T22:19:48.392Z,-0.58
2023-03-03T22:22:46.368Z,-0.68
2023-03-03T22:25:31.657Z,-0.74
2023-03-03T22:28:23.509Z,-0.72
2023-03-03T22:31:23.168Z,-0.78
2023-03-03T22:34:10.299Z,-0.79
2023-03-03T22:36:56.753Z,-0.84
2023-03-03T22:39:49.167Z,-0.92
2023-03-03T22:42:35.273Z,-0.98
2023-03-03T22:45:24.484Z,-0.88
2023-03-03T22:48:12.988Z,-0.90
2023-03-03T22:51:03.088Z,-0.95
2023-03-03T22:53:53.496Z,-0.97
2023-03-03T22:56:49.308Z,-1.04
2023-03-03T22:59:37.792Z,-1.02
2023-03-03T23:02:19.036Z,-1.02
2023-03-03T23:05:10.844Z,-1.01
2023-03-03T23:07:59.874Z,-1.06
2023-03-03T23:10:49.024Z,-1.20
2023-03-03T23:13:30.141Z,-1.16
2023-03-03T23:16:10.747Z,-1.21
2023-03-03T23:18:56.952Z,-1.40
2023-03-03T23:21:47.269Z,-1.36
2023-03-03T23:24:33.143Z,-1.41
2023-03-03T23:27:22.970Z,-1.29
2023-03-03T23:30:10.979Z,-1.36
2023-03-03T23:33:01.610Z,-1.32
2023-03-03T23:35:42.491Z,-1.45
2023-03-03T23:38:24.828Z,-1.52
2023-03-03T23:41:22.747Z,-1.49
2023-03-03T23:44:15.043Z,-1.46
2023-03-03T23:47:04.042Z,-1.39
2023-03-03T23:49:50.716Z,-1.46
2023-03-03T23:52:40.529Z,-1.47
2023-03-03T23:55:31.645Z,-1.52
2023-03-03T23:58:15.272Z,-1.65
